St.george — 9HVP9 — position and weather

sailwx.info

Track history (hours):
 
Tides and Currents Weather Stations Pressure Air Temp Water Temp Dewpoint Dewpoint Depression Visibility Wind Speed Wind Dir Waves Ship Positions

St.george

Last reported at 2018-May-27 12:41 UTC. Time now 2018-Jun-20 12:56 UTC.
Position N 38°17' E 012°53'.
Warning: this ship's position is 24 days out of date.

Length 60 m; draft 2 m.

Type: Other ship. MMSI: 249603000.

Date/timePositionNaut miles runAvg speedWind from/ knotsBaromVisibWave heightAir tempDewpointWater temp
2018-May-27 12:41N 38°17' E 012°53'1 7.6
2018-May-27 12:30N 38°17' E 012°54'4 7.5
2018-May-27 11:58N 38°17' E 012°60'4 7.5
2018-May-27 11:29N 38°17' E 013°04'3 7.3
2018-May-27 11:00N 38°17' E 013°09'4 7.1
2018-May-27 10:30N 38°17' E 013°13'3 6.6
2018-May-27 10:00N 38°17' E 013°17'3 6.2
2018-May-27 09:30N 38°17' E 013°21'2 4.7
2018-May-27 09:00N 38°16' E 013°23'3 6.2
2018-May-27 08:30N 38°13' E 013°24'3 6.0
2018-May-27 08:00N 38°10' E 013°26'3 5.7
2018-May-27 07:30N 38°08' E 013°24'1 2.1
2018-May-27 07:00N 38°08' E 013°22'0 0.0
2018-May-27 06:30N 38°08' E 013°22'0 0.0
2018-May-27 06:00N 38°08' E 013°22'0 0.0
2018-May-27 05:30N 38°08' E 013°22'0 0.0
2018-May-27 05:00N 38°08' E 013°22'0 0.0
2018-May-27 04:30N 38°08' E 013°22'0 0.0
2018-May-27 04:00N 38°08' E 013°22'0 0.0
2018-May-27 03:30N 38°08' E 013°22'0 0.0
2018-May-27 03:00N 38°08' E 013°22'0 0.0
2018-May-27 02:30N 38°08' E 013°22'0 0.0
2018-May-27 02:00N 38°08' E 013°22'0 0.0
2018-May-27 01:30N 38°08' E 013°22'0 0.0
2018-May-27 01:00N 38°08' E 013°22'0 0.0
2018-May-27 00:30N 38°08' E 013°22'0 0.0
2018-May-27 00:00N 38°08' E 013°22'0 0.0
2018-May-26 23:30N 38°08' E 013°22'0 0.0
2018-May-26 23:00N 38°08' E 013°22'0 0.0
2018-May-26 22:30N 38°08' E 013°22'0 0.0
2018-May-26 22:00N 38°08' E 013°22'0 0.0
2018-May-26 21:30N 38°08' E 013°22'0 0.0
2018-May-26 21:00N 38°08' E 013°22'0 0.0
2018-May-26 20:30N 38°08' E 013°22'0 0.0
2018-May-26 20:00N 38°08' E 013°22'0 0.0
2018-May-26 19:30N 38°08' E 013°22'0 0.0
2018-May-26 19:00N 38°08' E 013°22'0 0.0
2018-May-26 18:30N 38°08' E 013°22'0 0.0
2018-May-26 18:00N 38°08' E 013°22'0 0.0
2018-May-26 17:30N 38°08' E 013°22'0 0.0
2018-May-26 17:00N 38°08' E 013°22'0 0.0
2018-May-26 16:30N 38°08' E 013°22'0 0.0
2018-May-26 16:00N 38°08' E 013°22'0 0.0
2018-May-26 15:30N 38°08' E 013°22'0 0.0
2018-May-26 15:00N 38°08' E 013°22'0 0.0
2018-May-26 14:30N 38°08' E 013°22'0 0.0
2018-May-26 14:00N 38°08' E 013°22'0 0.0
2018-May-26 13:30N 38°08' E 013°22'0 0.0
2018-May-26 13:00N 38°08' E 013°22'0 0.0
2018-May-26 12:30N 38°08' E 013°22'0 0.0
2018-May-26 12:00N 38°08' E 013°22'0 0.0
2018-May-26 11:30N 38°08' E 013°22'0 0.0
2018-May-26 11:00N 38°08' E 013°22'0 0.0
2018-May-26 10:30N 38°08' E 013°22'0 0.0
2018-May-26 10:00N 38°08' E 013°22'0 0.0
2018-May-26 09:30N 38°08' E 013°22'0 0.0
2018-May-26 09:00N 38°08' E 013°22'0 0.0
2018-May-26 08:30N 38°08' E 013°22'0 0.0
2018-May-26 08:00N 38°08' E 013°22'0 0.0
2018-May-26 07:30N 38°08' E 013°22'0 0.0
2018-May-26 07:00N 38°08' E 013°22'0 0.0
2018-May-26 06:30N 38°08' E 013°22'0 0.0
2018-May-26 05:30N 38°08' E 013°22'0 0.0
2018-May-26 05:00N 38°08' E 013°22'0 0.0
2018-May-26 04:30N 38°08' E 013°22'0 0.0
2018-May-26 04:00N 38°08' E 013°22'0 0.0
2018-May-26 03:30N 38°08' E 013°22'0 0.0
2018-May-26 03:00N 38°08' E 013°22'0 0.0
2018-May-26 02:30N 38°08' E 013°22'0 0.0
2018-May-26 02:00N 38°08' E 013°22'0 0.0
2018-May-26 01:30N 38°08' E 013°22'0 0.0
2018-May-26 01:00N 38°08' E 013°22'0 0.0
2018-May-26 00:30N 38°08' E 013°22'0 0.0
2018-May-26 00:00N 38°08' E 013°22'0 0.0
2018-May-25 23:30N 38°08' E 013°22'0 0.0
2018-May-25 23:00N 38°08' E 013°22'0 0.0
2018-May-25 22:30N 38°08' E 013°22'0 0.0
2018-May-25 22:00N 38°08' E 013°22'0 0.0
2018-May-25 21:30N 38°08' E 013°22'0 0.0
2018-May-25 21:00N 38°08' E 013°22'0 0.0
2018-May-25 20:30N 38°08' E 013°22'0 0.0
2018-May-25 20:00N 38°08' E 013°22'0 0.0
2018-May-25 19:30N 38°08' E 013°22'0 0.0
2018-May-25 19:00N 38°08' E 013°22'0 0.0
2018-May-25 18:30N 38°08' E 013°22'0 0.0
2018-May-25 18:00N 38°08' E 013°22'0 0.0
2018-May-25 17:30N 38°08' E 013°22'0 0.0
2018-May-25 17:00N 38°08' E 013°22'0 0.0
2018-May-25 16:27N 38°08' E 013°22'0 0.0
2018-May-25 16:00N 38°08' E 013°22'0 0.0
2018-May-25 15:30N 38°08' E 013°22'0 0.0
2018-May-25 15:00N 38°08' E 013°22'0 0.0
2018-May-25 14:30N 38°08' E 013°22'0 0.0
2018-May-25 14:00N 38°08' E 013°22'0 0.0
2018-May-25 13:30N 38°08' E 013°22'0 0.0
2018-May-25 13:00N 38°08' E 013°22'0 0.0
2018-May-25 12:27N 38°08' E 013°22'0 0.0
2018-May-25 11:57N 38°08' E 013°22'0 0.0
2018-May-25 11:30N 38°08' E 013°22'0 0.0
2018-May-25 11:00N 38°08' E 013°22'0 0.0
2018-May-25 10:30N 38°08' E 013°22'0 0.0
2018-May-25 09:51N 38°08' E 013°22'0 0.0
2018-May-25 09:30N 38°08' E 013°22'0 0.0
2018-May-25 09:00N 38°08' E 013°22'0 0.0
2018-May-25 08:30N 38°08' E 013°22'0 0.0
2018-May-25 08:00N 38°08' E 013°22'0 0.0
2018-May-25 07:30N 38°08' E 013°22'0 0.0
2018-May-25 07:00N 38°08' E 013°22'0 0.0
2018-May-25 06:30N 38°08' E 013°22'0 0.0
2018-May-25 06:00N 38°08' E 013°22'0 0.0
2018-May-25 05:30N 38°08' E 013°22'0 0.0
2018-May-25 05:00N 38°08' E 013°22'0 0.0
2018-May-25 04:30N 38°08' E 013°22'0 0.0
2018-May-25 04:00N 38°08' E 013°22'0 0.0
2018-May-25 03:30N 38°08' E 013°22'0 0.0
2018-May-25 03:00N 38°08' E 013°22'0 0.0
2018-May-25 02:30N 38°08' E 013°22'0 0.0
2018-May-25 02:00N 38°08' E 013°22'0 0.0
2018-May-25 01:30N 38°08' E 013°22'0 0.0
2018-May-25 01:00N 38°08' E 013°22'0 0.0
2018-May-25 00:30N 38°08' E 013°22'0 0.0
2018-May-25 00:00N 38°08' E 013°22'0 0.0
2018-May-24 23:30N 38°08' E 013°22'0 0.0
2018-May-24 23:00N 38°08' E 013°22'0 0.0
2018-May-24 22:30N 38°08' E 013°22'0 0.0
2018-May-24 22:00N 38°08' E 013°22'0 0.0
2018-May-24 21:30N 38°08' E 013°22'0 0.0
2018-May-24 21:00N 38°08' E 013°22'0 0.0
2018-May-24 20:30N 38°08' E 013°22'0 0.0
2018-May-24 20:00N 38°08' E 013°22'0 0.0
2018-May-24 19:30N 38°08' E 013°22'0 0.0
2018-May-24 19:00N 38°08' E 013°22'0 0.0
2018-May-24 18:30N 38°08' E 013°22'0 0.0
2018-May-24 18:00N 38°08' E 013°22'0 0.0
2018-May-24 17:30N 38°08' E 013°22'0 0.0
2018-May-24 17:00N 38°08' E 013°22'0 0.0
2018-May-24 16:30N 38°08' E 013°22'0 0.0
2018-May-24 16:00N 38°08' E 013°22'0 0.0
2018-May-24 15:30N 38°08' E 013°22'0 0.0
2018-May-24 15:00N 38°08' E 013°22'0 0.0
2018-May-24 14:30N 38°08' E 013°22'0 0.0
2018-May-24 14:00N 38°08' E 013°22'0 0.0
2018-May-24 13:30N 38°08' E 013°22'0 0.0
2018-May-24 09:00N 38°08' E 013°22'0 0.0
2018-May-24 08:30N 38°08' E 013°22'0 0.0
2018-May-24 08:00N 38°08' E 013°22'0 0.0
2018-May-24 07:30N 38°08' E 013°22'0 0.0
2018-May-24 07:00N 38°08' E 013°22'0 0.0
2018-May-24 06:30N 38°08' E 013°22'0 0.0
2018-May-24 06:00N 38°08' E 013°22'0 0.0
2018-May-24 05:30N 38°08' E 013°22'0 0.0
2018-May-24 05:00N 38°08' E 013°22'0 0.0
2018-May-24 04:30N 38°08' E 013°22'0 0.0
2018-May-24 04:00N 38°08' E 013°22'0 0.0
2018-May-24 03:30N 38°08' E 013°22'0 0.0
2018-May-24 03:00N 38°08' E 013°22'0 0.0
2018-May-24 02:30N 38°08' E 013°22'0 0.0
2018-May-24 02:00N 38°08' E 013°22'0 0.0
2018-May-24 01:30N 38°08' E 013°22'0 0.0
2018-May-24 01:00N 38°08' E 013°22'0 0.0
2018-May-24 00:30N 38°08' E 013°22'0 0.0
2018-May-24 00:00N 38°08' E 013°22'0 0.0
2018-May-23 23:30N 38°08' E 013°22'0 0.0
2018-May-23 23:00N 38°08' E 013°22'0 0.0
2018-May-23 22:30N 38°08' E 013°22'0 0.0
2018-May-23 22:00N 38°08' E 013°22'0 0.0
2018-May-23 21:30N 38°08' E 013°22'0 0.0
2018-May-23 21:00N 38°08' E 013°22'0 0.0
2018-May-23 20:30N 38°08' E 013°22'0 0.0
2018-May-23 20:00N 38°08' E 013°22'0 0.0
2018-May-23 19:30N 38°08' E 013°22'0 0.0
2018-May-23 19:00N 38°08' E 013°22'0 0.0
2018-May-23 18:30N 38°08' E 013°22'0 0.0
2018-May-23 18:00N 38°08' E 013°22'0 0.0
2018-May-23 17:30N 38°08' E 013°22'0 0.0
2018-May-23 17:00N 38°08' E 013°22'0 0.0
2018-May-23 16:30N 38°08' E 013°22'0 0.0
2018-May-23 16:00N 38°08' E 013°22'0 0.0
2018-May-23 15:30N 38°08' E 013°22'0 0.0
2018-May-23 15:00N 38°08' E 013°22'0 0.0
2018-May-23 14:30N 38°08' E 013°22'0 0.0
2018-May-23 14:00N 38°08' E 013°22'0 0.0
2018-May-23 13:30N 38°08' E 013°22'0 0.0
2018-May-23 13:00N 38°08' E 013°22'0 0.0
2018-May-23 12:30N 38°08' E 013°22'0 0.0
2018-May-23 12:00N 38°08' E 013°22'0 0.0
2018-May-23 11:30N 38°08' E 013°22'0 0.0
2018-May-23 11:00N 38°08' E 013°22'0 0.0
2018-May-23 10:30N 38°08' E 013°22'0 0.0
2018-May-23 10:00N 38°08' E 013°22'0 0.0
2018-May-23 09:30N 38°08' E 013°22'0 0.0
2018-May-23 09:00N 38°08' E 013°22'0 0.0
2018-May-23 08:30N 38°08' E 013°22'0 0.0
2018-May-23 08:00N 38°08' E 013°22'0 0.0
2018-May-23 07:30N 38°08' E 013°22'0 0.0
2018-May-23 07:00N 38°08' E 013°22'0 0.0
2018-May-23 06:30N 38°08' E 013°22'0 0.0
2018-May-23 06:00N 38°08' E 013°22'0 0.0
2018-May-23 05:30N 38°08' E 013°22'0 0.0
2018-May-23 05:00N 38°08' E 013°22'0 0.0
2018-May-23 04:30N 38°08' E 013°22'0 0.0
2018-May-23 04:00N 38°08' E 013°22'0 0.0
2018-May-23 03:30N 38°08' E 013°22'0 0.0
2018-May-23 03:00N 38°08' E 013°22'0 0.0
2018-May-23 02:30N 38°08' E 013°22'0 0.0
2018-May-23 02:00N 38°08' E 013°22'0 0.0
2018-May-23 01:30N 38°08' E 013°22'0 0.0
2018-May-23 01:00N 38°08' E 013°22'0 0.0
2018-May-23 00:30N 38°08' E 013°22'0 0.0
2018-May-23 00:00N 38°08' E 013°22'0 0.0
2018-May-22 23:30N 38°08' E 013°22'0 0.0
2018-May-22 23:00N 38°08' E 013°22'0 0.0
2018-May-22 22:30N 38°08' E 013°22'0 0.0
2018-May-22 22:00N 38°08' E 013°22'0 0.0
2018-May-22 21:30N 38°08' E 013°22'0 0.0
2018-May-22 21:00N 38°08' E 013°22'0 0.0
2018-May-22 20:30N 38°08' E 013°22'0 0.0
2018-May-22 20:00N 38°08' E 013°22'0 0.0
2018-May-22 19:30N 38°08' E 013°22'0 0.0
2018-May-22 19:00N 38°08' E 013°22'0 0.0
2018-May-22 18:30N 38°08' E 013°22'0 0.0
2018-May-22 18:00N 38°08' E 013°22'0 0.0
2018-May-22 17:30N 38°08' E 013°22'0 0.0
2018-May-22 16:42N 38°08' E 013°22'0 0.0
2018-May-22 16:30N 38°08' E 013°22'0 0.0
2018-May-22 16:00N 38°08' E 013°22'0 0.0
2018-May-22 15:30N 38°08' E 013°22'0 0.0
2018-May-22 15:00N 38°08' E 013°22'0 0.0
2018-May-22 14:30N 38°08' E 013°22'0 0.0
2018-May-22 14:00N 38°08' E 013°22'0 0.0
2018-May-22 13:30N 38°08' E 013°22'0 0.0
2018-May-22 13:00N 38°08' E 013°22'0 0.0
2018-May-22 12:30N 38°08' E 013°22'0 0.0
2018-May-22 12:00N 38°08' E 013°22'0 0.0
2018-May-22 11:30N 38°08' E 013°22'0 0.0
2018-May-22 10:54N 38°08' E 013°22'0 0.0
2018-May-22 10:30N 38°08' E 013°22'0 0.0
2018-May-22 09:57N 38°08' E 013°22'0 0.0
2018-May-22 09:30N 38°08' E 013°22'0 0.0
2018-May-22 09:00N 38°08' E 013°22'0 0.0
2018-May-22 08:30N 38°08' E 013°22'0 0.0
2018-May-22 08:00N 38°08' E 013°22'0 0.0
2018-May-22 07:30N 38°08' E 013°22'0 0.0
2018-May-22 07:00N 38°08' E 013°22'0 0.0
2018-May-22 06:30N 38°08' E 013°22'0 0.0
2018-May-22 06:00N 38°08' E 013°22'0 0.0
2018-May-22 05:30N 38°08' E 013°22'0 0.0
2018-May-22 05:00N 38°08' E 013°22'0 0.0
2018-May-22 04:30N 38°08' E 013°22'0 0.0
2018-May-22 04:00N 38°08' E 013°22'0 0.0
2018-May-22 03:30N 38°08' E 013°22'0 0.0
2018-May-22 03:00N 38°08' E 013°22'0 0.0
2018-May-22 02:30N 38°08' E 013°22'0 0.0
2018-May-22 02:00N 38°08' E 013°22'0 0.0
2018-May-22 01:30N 38°08' E 013°22'0 0.0
2018-May-22 01:00N 38°08' E 013°22'0 0.0
2018-May-22 00:30N 38°08' E 013°22'0 0.0
2018-May-22 00:00N 38°08' E 013°22'0 0.0
2018-May-21 23:30N 38°08' E 013°22'0 0.0
2018-May-21 23:00N 38°08' E 013°22'0 0.0
2018-May-21 22:30N 38°08' E 013°22'0 0.0
2018-May-21 22:00N 38°08' E 013°22'0 0.0
2018-May-21 21:30N 38°08' E 013°22'0 0.0
2018-May-21 21:00N 38°08' E 013°22'0 0.0
2018-May-21 20:30N 38°08' E 013°22'0 0.0
2018-May-21 20:00N 38°08' E 013°22'0 0.0
2018-May-21 19:30N 38°08' E 013°22'0 0.0
2018-May-21 19:00N 38°08' E 013°22'0 0.0
2018-May-21 18:30N 38°08' E 013°22'0 0.0
2018-May-21 18:00N 38°08' E 013°22'0 0.0
2018-May-21 17:30N 38°08' E 013°22'0 0.0
2018-May-21 17:00N 38°08' E 013°22'0 0.0
2018-May-21 16:30N 38°08' E 013°22'0 0.0
2018-May-21 16:00N 38°08' E 013°22'0 0.0
2018-May-21 15:30N 38°08' E 013°22'0 0.0
2018-May-21 15:00N 38°08' E 013°22'0 0.0
2018-May-21 14:30N 38°08' E 013°22'0 0.0
2018-May-21 14:00N 38°08' E 013°22'0 0.0
2018-May-21 13:30N 38°08' E 013°22'0 0.0
2018-May-21 13:00N 38°08' E 013°22'0 0.0
2018-May-21 12:30N 38°08' E 013°22'0 0.0
2018-May-21 12:00N 38°08' E 013°22'0 0.0
2018-May-21 11:30N 38°08' E 013°22'0 0.0
2018-May-21 11:00N 38°08' E 013°22'0 0.0
2018-May-21 10:30N 38°08' E 013°22'0 0.0
2018-May-21 10:00N 38°08' E 013°22'0 0.0
2018-May-21 09:30N 38°08' E 013°22'0 0.0
2018-May-21 09:00N 38°08' E 013°22'0 0.0
2018-May-21 08:30N 38°08' E 013°22'0 0.0
2018-May-21 08:00N 38°08' E 013°22'0 0.0
2018-May-21 07:30N 38°08' E 013°22'0 0.0
2018-May-21 07:00N 38°08' E 013°22'0 0.0
2018-May-21 06:30N 38°08' E 013°22'0 0.0
2018-May-21 06:00N 38°08' E 013°22'0 0.0
2018-May-21 05:30N 38°08' E 013°22'0 0.0
2018-May-21 05:00N 38°08' E 013°22'0 0.0
2018-May-21 04:30N 38°08' E 013°22'0 0.0
2018-May-21 04:00N 38°08' E 013°22'0 0.0
2018-May-21 03:30N 38°08' E 013°22'0 0.0
2018-May-21 03:00N 38°08' E 013°22'0 0.0
2018-May-21 02:30N 38°08' E 013°22'0 0.0
2018-May-21 02:00N 38°08' E 013°22'0 0.0
2018-May-21 01:30N 38°08' E 013°22'0 0.0
2018-May-21 01:00N 38°08' E 013°22'0 0.0
2018-May-21 00:30N 38°08' E 013°22'0 0.0
2018-May-21 00:00N 38°08' E 013°22'0 0.0
2018-May-20 23:30N 38°08' E 013°22'0 0.0
2018-May-20 23:00N 38°08' E 013°22'0 0.0
2018-May-20 22:30N 38°08' E 013°22'0 0.0
2018-May-20 22:00N 38°08' E 013°22'0 0.0
2018-May-20 21:30N 38°08' E 013°22'0 0.0
2018-May-20 21:00N 38°08' E 013°22'0 0.0
2018-May-20 20:30N 38°08' E 013°22'0 0.0
2018-May-20 20:00N 38°08' E 013°22'0 0.0
2018-May-20 19:30N 38°08' E 013°22'0 0.0
2018-May-20 19:00N 38°08' E 013°22'0 0.0
2018-May-20 18:30N 38°08' E 013°22'0 0.0
2018-May-20 18:00N 38°08' E 013°22'0 0.0
2018-May-20 17:30N 38°08' E 013°22'0 0.0
2018-May-20 17:00N 38°08' E 013°22'0 0.0
2018-May-20 16:30N 38°08' E 013°22'0 0.0
2018-May-20 16:00N 38°08' E 013°22'0 0.0
2018-May-20 15:30N 38°08' E 013°22'0 0.0
2018-May-20 15:00N 38°08' E 013°22'0 0.0
2018-May-20 14:30N 38°08' E 013°22'0 0.0
2018-May-20 14:00N 38°08' E 013°22'0 0.0
2018-May-20 13:30N 38°08' E 013°22'0 0.0
2018-May-20 13:00N 38°08' E 013°22'0 0.0
2018-May-20 12:30N 38°08' E 013°22'0 0.0
2018-May-20 12:00N 38°08' E 013°22'0 0.0
2018-May-20 11:30N 38°08' E 013°22'0 0.0
2018-May-20 11:00N 38°08' E 013°22'0 0.0
2018-May-20 10:30N 38°08' E 013°22'0 0.0
2018-May-20 10:00N 38°08' E 013°22'0 0.0
2018-May-20 09:30N 38°08' E 013°22'0 0.0
2018-May-20 09:00N 38°08' E 013°22'0 0.0
2018-May-20 08:30N 38°08' E 013°22'0 0.0
2018-May-20 07:57N 38°08' E 013°22'0 0.0
2018-May-20 07:30N 38°08' E 013°22'0 0.0
2018-May-20 07:00N 38°08' E 013°22'0 0.0
2018-May-20 06:30N 38°08' E 013°22'0 0.0
2018-May-20 06:00N 38°08' E 013°22'0 0.0
2018-May-20 05:30N 38°08' E 013°22'0 0.0
2018-May-20 05:00N 38°08' E 013°22'0 0.0
2018-May-20 04:30N 38°08' E 013°22'0 0.0
2018-May-20 04:00N 38°08' E 013°22'0 0.0
2018-May-20 03:30N 38°08' E 013°22'0 0.0
2018-May-20 02:58N 38°08' E 013°22'0 0.0
2018-May-20 02:28N 38°08' E 013°22'0 0.0
2018-May-20 01:58N 38°08' E 013°22'0 0.0
2018-May-20 01:28N 38°08' E 013°22'0 0.0
2018-May-20 00:58N 38°08' E 013°22'0 0.0
2018-May-20 00:28N 38°08' E 013°22'0 0.0
2018-May-19 23:58N 38°08' E 013°22'0 0.0
2018-May-19 23:28N 38°08' E 013°22'0 0.0
2018-May-19 22:58N 38°08' E 013°22'0 0.0
2018-May-19 22:28N 38°08' E 013°22'0 0.0
2018-May-19 21:58N 38°08' E 013°22'0 0.0
2018-May-19 21:28N 38°08' E 013°22'0 0.0
2018-May-19 20:58N 38°08' E 013°22'0 0.0
2018-May-19 20:28N 38°08' E 013°22'0 0.0
2018-May-19 19:58N 38°08' E 013°22'0 0.0
2018-May-19 19:28N 38°08' E 013°22'0 0.0
2018-May-19 18:58N 38°08' E 013°22'0 0.0
2018-May-19 18:28N 38°08' E 013°22'0 0.0
2018-May-19 17:58N 38°08' E 013°22'0 0.0
2018-May-19 17:28N 38°08' E 013°22'0 0.0
2018-May-19 16:58N 38°08' E 013°22'0 0.0
2018-May-19 16:22N 38°08' E 013°22'0 0.0
2018-May-19 15:58N 38°08' E 013°22'0 0.0
2018-May-19 15:28N 38°08' E 013°22'0 0.0
2018-May-19 14:58N 38°08' E 013°22'0 0.0
2018-May-19 14:28N 38°08' E 013°22'0 0.0
2018-May-19 13:58N 38°08' E 013°22'0 0.0
2018-May-19 13:28N 38°08' E 013°22'0 0.0
2018-May-19 12:58N 38°08' E 013°22'0 0.0
2018-May-19 12:29N 38°08' E 013°22'0 0.0
2018-May-19 11:59N 38°08' E 013°22'0 0.0
2018-May-19 11:29N 38°08' E 013°22'0 0.0
2018-May-19 10:59N 38°08' E 013°22'0 0.0
2018-May-19 10:29N 38°08' E 013°22'0 0.0
2018-May-19 09:59N 38°08' E 013°22'0 0.0
2018-May-19 09:26N 38°08' E 013°22'0 0.0
2018-May-19 08:59N 38°08' E 013°22'0 0.0
2018-May-19 08:29N 38°08' E 013°22'0 0.0
2018-May-19 07:59N 38°08' E 013°22'0 0.0
2018-May-19 07:29N 38°08' E 013°22'0 0.0
2018-May-19 06:56N 38°08' E 013°22'0 0.0
2018-May-19 06:29N 38°08' E 013°22'0 0.0
2018-May-19 05:59N 38°08' E 013°22'0 0.0
2018-May-19 05:29N 38°08' E 013°22'0 0.0
2018-May-19 04:56N 38°08' E 013°22'0 0.0
2018-May-19 04:29N 38°08' E 013°22'0 0.0
2018-May-19 03:59N 38°08' E 013°22'0 0.0
2018-May-19 03:29N 38°08' E 013°22'0 0.0
2018-May-19 02:59N 38°08' E 013°22'0 0.0
2018-May-19 02:26N 38°08' E 013°22'0 0.0
2018-May-19 01:56N 38°08' E 013°22'0 0.0
2018-May-19 01:26N 38°08' E 013°22'0 0.0
2018-May-19 00:59N 38°08' E 013°22'0 0.0
2018-May-19 00:29N 38°08' E 013°22'0 0.0
2018-May-18 23:59N 38°08' E 013°22'0 0.0
2018-May-18 23:26N 38°08' E 013°22'0 0.0
2018-May-18 22:59N 38°08' E 013°22'0 0.0
2018-May-18 22:29N 38°08' E 013°22'0 0.0
2018-May-18 21:59N 38°08' E 013°22'0 0.0
2018-May-18 21:29N 38°08' E 013°22'0 0.0
2018-May-18 20:59N 38°08' E 013°22'0 0.0
2018-May-18 20:29N 38°08' E 013°22'0 0.0
2018-May-18 19:59N 38°08' E 013°22'0 0.0
2018-May-18 19:29N 38°08' E 013°22'0 0.0
2018-May-18 18:59N 38°08' E 013°22'0 0.0
2018-May-18 18:29N 38°08' E 013°22'0 0.0
2018-May-18 17:59N 38°08' E 013°22'0 0.0
2018-May-18 17:29N 38°08' E 013°22'0 0.0
2018-May-18 16:56N 38°08' E 013°22'0 0.0
2018-May-18 16:29N 38°08' E 013°22'0 0.0
2018-May-18 15:59N 38°08' E 013°22'0 0.0
2018-May-18 15:29N 38°08' E 013°22'0 0.0
2018-May-18 14:59N 38°08' E 013°22'0 0.0
2018-May-18 14:29N 38°08' E 013°22'0 0.0
2018-May-18 13:59N 38°08' E 013°22'0 0.0
2018-May-18 13:29N 38°08' E 013°22'0 0.0
2018-May-18 12:59N 38°08' E 013°22'0 0.0
2018-May-18 12:29N 38°08' E 013°22'0 0.1
2018-May-18 11:59N 38°08' E 013°22'0 0.0
2018-May-18 11:29N 38°08' E 013°22'0 0.0
2018-May-18 10:56N 38°08' E 013°22'0 0.0
2018-May-18 10:26N 38°08' E 013°22'0 0.0
2018-May-18 09:56N 38°08' E 013°22'0 0.0
2018-May-18 09:26N 38°08' E 013°22'0 0.0
2018-May-18 08:56N 38°08' E 013°22'0 0.0
2018-May-18 08:29N 38°08' E 013°22'0 0.0
2018-May-18 07:59N 38°08' E 013°22'0 0.0
2018-May-18 07:29N 38°08' E 013°22'0 0.0
2018-May-18 06:59N 38°08' E 013°22'0 0.0
2018-May-18 06:29N 38°08' E 013°22'0 0.0
2018-May-18 05:59N 38°08' E 013°22'0 0.0
2018-May-18 05:29N 38°08' E 013°22'0 0.0
2018-May-18 04:59N 38°08' E 013°22'0 0.0
2018-May-18 04:26N 38°08' E 013°22'0 0.0
2018-May-18 03:59N 38°08' E 013°22'0 0.0
2018-May-18 03:29N 38°08' E 013°22'0 0.0
2018-May-18 02:59N 38°08' E 013°22'0 0.0
2018-May-18 02:29N 38°08' E 013°22'0 0.0
2018-May-18 01:59N 38°08' E 013°22'0 0.0
2018-May-18 01:29N 38°08' E 013°22'0 0.0
2018-May-18 00:59N 38°08' E 013°22'0 0.0
2018-May-18 00:29N 38°08' E 013°22'0 0.0
2018-May-17 23:59N 38°08' E 013°22'0 0.0
2018-May-17 23:29N 38°08' E 013°22'0 0.0
2018-May-17 22:56N 38°08' E 013°22'0 0.0
2018-May-17 22:20N 38°08' E 013°22'0 0.0
2018-May-17 21:56N 38°08' E 013°22'0 0.0
2018-May-17 21:26N 38°08' E 013°22'0 0.0
2018-May-17 20:56N 38°08' E 013°22'0 0.0
2018-May-17 20:26N 38°08' E 013°22'0 0.0
2018-May-17 19:38N 38°08' E 013°22'0 0.0
2018-May-17 19:20N 38°08' E 013°22'0 0.0
2018-May-17 18:56N 38°08' E 013°22'0 0.0
2018-May-17 18:26N 38°08' E 013°22'0 0.0
2018-May-17 17:59N 38°08' E 013°22'0 0.0
2018-May-17 17:29N 38°08' E 013°22'0 0.0
2018-May-17 16:56N 38°08' E 013°22'0 0.0
2018-May-17 16:29N 38°08' E 013°22'0 0.0
2018-May-17 15:59N 38°08' E 013°22'0 0.0
2018-May-17 15:29N 38°08' E 013°22'0 0.0
2018-May-17 14:59N 38°08' E 013°22'0 0.0
2018-May-17 14:29N 38°08' E 013°22'0 0.0
2018-May-17 13:56N 38°08' E 013°22'0 0.0
2018-May-17 13:29N 38°08' E 013°22'0 0.0
2018-May-17 12:59N 38°08' E 013°22'  
Track history (hours):
 
Tides and Currents Weather Stations Pressure Air Temp Water Temp Dewpoint Dewpoint Depression Visibility Wind Speed Wind Dir Waves Ship Positions

St.george

Last reported at 2018-May-27 12:41 UTC. Time now 2018-Jun-20 12:56 UTC.
Position N 38°17' E 012°53'.
Warning: this ship's position is 24 days out of date.

Length 60 m; draft 2 m.

Type: Other ship. MMSI: 249603000.

Date/timePositionNaut miles runAvg speedWind from/ knotsBaromVisibWave heightAir tempDewpointWater temp
2018-May-27 12:41N 38°17' E 012°53'1 7.6
2018-May-27 12:30N 38°17' E 012°54'4 7.5
2018-May-27 11:58N 38°17' E 012°60'4 7.5
2018-May-27 11:29N 38°17' E 013°04'3 7.3
2018-May-27 11:00N 38°17' E 013°09'4 7.1
2018-May-27 10:30N 38°17' E 013°13'3 6.6
2018-May-27 10:00N 38°17' E 013°17'3 6.2
2018-May-27 09:30N 38°17' E 013°21'2 4.7
2018-May-27 09:00N 38°16' E 013°23'3 6.2
2018-May-27 08:30N 38°13' E 013°24'3 6.0
2018-May-27 08:00N 38°10' E 013°26'3 5.7
2018-May-27 07:30N 38°08' E 013°24'1 2.1
2018-May-27 07:00N 38°08' E 013°22'0 0.0
2018-May-27 06:30N 38°08' E 013°22'0 0.0
2018-May-27 06:00N 38°08' E 013°22'0 0.0
2018-May-27 05:30N 38°08' E 013°22'0 0.0
2018-May-27 05:00N 38°08' E 013°22'0 0.0
2018-May-27 04:30N 38°08' E 013°22'0 0.0
2018-May-27 04:00N 38°08' E 013°22'0 0.0
2018-May-27 03:30N 38°08' E 013°22'0 0.0
2018-May-27 03:00N 38°08' E 013°22'0 0.0
2018-May-27 02:30N 38°08' E 013°22'0 0.0
2018-May-27 02:00N 38°08' E 013°22'0 0.0
2018-May-27 01:30N 38°08' E 013°22'0 0.0
2018-May-27 01:00N 38°08' E 013°22'0 0.0
2018-May-27 00:30N 38°08' E 013°22'0 0.0
2018-May-27 00:00N 38°08' E 013°22'0 0.0
2018-May-26 23:30N 38°08' E 013°22'0 0.0
2018-May-26 23:00N 38°08' E 013°22'0 0.0
2018-May-26 22:30N 38°08' E 013°22'0 0.0
2018-May-26 22:00N 38°08' E 013°22'0 0.0
2018-May-26 21:30N 38°08' E 013°22'0 0.0
2018-May-26 21:00N 38°08' E 013°22'0 0.0
2018-May-26 20:30N 38°08' E 013°22'0 0.0
2018-May-26 20:00N 38°08' E 013°22'0 0.0
2018-May-26 19:30N 38°08' E 013°22'0 0.0
2018-May-26 19:00N 38°08' E 013°22'0 0.0
2018-May-26 18:30N 38°08' E 013°22'0 0.0
2018-May-26 18:00N 38°08' E 013°22'0 0.0
2018-May-26 17:30N 38°08' E 013°22'0 0.0
2018-May-26 17:00N 38°08' E 013°22'0 0.0
2018-May-26 16:30N 38°08' E 013°22'0 0.0
2018-May-26 16:00N 38°08' E 013°22'0 0.0
2018-May-26 15:30N 38°08' E 013°22'0 0.0
2018-May-26 15:00N 38°08' E 013°22'0 0.0
2018-May-26 14:30N 38°08' E 013°22'0 0.0
2018-May-26 14:00N 38°08' E 013°22'0 0.0
2018-May-26 13:30N 38°08' E 013°22'0 0.0
2018-May-26 13:00N 38°08' E 013°22'0 0.0
2018-May-26 12:30N 38°08' E 013°22'0 0.0
2018-May-26 12:00N 38°08' E 013°22'0 0.0
2018-May-26 11:30N 38°08' E 013°22'0 0.0
2018-May-26 11:00N 38°08' E 013°22'0 0.0
2018-May-26 10:30N 38°08' E 013°22'0 0.0
2018-May-26 10:00N 38°08' E 013°22'0 0.0
2018-May-26 09:30N 38°08' E 013°22'0 0.0
2018-May-26 09:00N 38°08' E 013°22'0 0.0
2018-May-26 08:30N 38°08' E 013°22'0 0.0
2018-May-26 08:00N 38°08' E 013°22'0 0.0
2018-May-26 07:30N 38°08' E 013°22'0 0.0
2018-May-26 07:00N 38°08' E 013°22'0 0.0
2018-May-26 06:30N 38°08' E 013°22'0 0.0
2018-May-26 05:30N 38°08' E 013°22'0 0.0
2018-May-26 05:00N 38°08' E 013°22'0 0.0
2018-May-26 04:30N 38°08' E 013°22'0 0.0
2018-May-26 04:00N 38°08' E 013°22'0 0.0
2018-May-26 03:30N 38°08' E 013°22'0 0.0
2018-May-26 03:00N 38°08' E 013°22'0 0.0
2018-May-26 02:30N 38°08' E 013°22'0 0.0
2018-May-26 02:00N 38°08' E 013°22'0 0.0
2018-May-26 01:30N 38°08' E 013°22'0 0.0
2018-May-26 01:00N 38°08' E 013°22'0 0.0
2018-May-26 00:30N 38°08' E 013°22'0 0.0
2018-May-26 00:00N 38°08' E 013°22'0 0.0
2018-May-25 23:30N 38°08' E 013°22'0 0.0
2018-May-25 23:00N 38°08' E 013°22'0 0.0
2018-May-25 22:30N 38°08' E 013°22'0 0.0
2018-May-25 22:00N 38°08' E 013°22'0 0.0
2018-May-25 21:30N 38°08' E 013°22'0 0.0
2018-May-25 21:00N 38°08' E 013°22'0 0.0
2018-May-25 20:30N 38°08' E 013°22'0 0.0
2018-May-25 20:00N 38°08' E 013°22'0 0.0
2018-May-25 19:30N 38°08' E 013°22'0 0.0
2018-May-25 19:00N 38°08' E 013°22'0 0.0
2018-May-25 18:30N 38°08' E 013°22'0 0.0
2018-May-25 18:00N 38°08' E 013°22'0 0.0
2018-May-25 17:30N 38°08' E 013°22'0 0.0
2018-May-25 17:00N 38°08' E 013°22'0 0.0
2018-May-25 16:27N 38°08' E 013°22'0 0.0
2018-May-25 16:00N 38°08' E 013°22'0 0.0
2018-May-25 15:30N 38°08' E 013°22'0 0.0
2018-May-25 15:00N 38°08' E 013°22'0 0.0
2018-May-25 14:30N 38°08' E 013°22'0 0.0
2018-May-25 14:00N 38°08' E 013°22'0 0.0
2018-May-25 13:30N 38°08' E 013°22'0 0.0
2018-May-25 13:00N 38°08' E 013°22'0 0.0
2018-May-25 12:27N 38°08' E 013°22'0 0.0
2018-May-25 11:57N 38°08' E 013°22'0 0.0
2018-May-25 11:30N 38°08' E 013°22'0 0.0
2018-May-25 11:00N 38°08' E 013°22'0 0.0
2018-May-25 10:30N 38°08' E 013°22'0 0.0
2018-May-25 09:51N 38°08' E 013°22'0 0.0
2018-May-25 09:30N 38°08' E 013°22'0 0.0
2018-May-25 09:00N 38°08' E 013°22'0 0.0
2018-May-25 08:30N 38°08' E 013°22'0 0.0
2018-May-25 08:00N 38°08' E 013°22'0 0.0
2018-May-25 07:30N 38°08' E 013°22'0 0.0
2018-May-25 07:00N 38°08' E 013°22'0 0.0
2018-May-25 06:30N 38°08' E 013°22'0 0.0
2018-May-25 06:00N 38°08' E 013°22'0 0.0
2018-May-25 05:30N 38°08' E 013°22'0 0.0
2018-May-25 05:00N 38°08' E 013°22'0 0.0
2018-May-25 04:30N 38°08' E 013°22'0 0.0
2018-May-25 04:00N 38°08' E 013°22'0 0.0
2018-May-25 03:30N 38°08' E 013°22'0 0.0
2018-May-25 03:00N 38°08' E 013°22'0 0.0
2018-May-25 02:30N 38°08' E 013°22'0 0.0
2018-May-25 02:00N 38°08' E 013°22'0 0.0
2018-May-25 01:30N 38°08' E 013°22'0 0.0
2018-May-25 01:00N 38°08' E 013°22'0 0.0
2018-May-25 00:30N 38°08' E 013°22'0 0.0
2018-May-25 00:00N 38°08' E 013°22'0 0.0
2018-May-24 23:30N 38°08' E 013°22'0 0.0
2018-May-24 23:00N 38°08' E 013°22'0 0.0
2018-May-24 22:30N 38°08' E 013°22'0 0.0
2018-May-24 22:00N 38°08' E 013°22'0 0.0
2018-May-24 21:30N 38°08' E 013°22'0 0.0
2018-May-24 21:00N 38°08' E 013°22'0 0.0
2018-May-24 20:30N 38°08' E 013°22'0 0.0
2018-May-24 20:00N 38°08' E 013°22'0 0.0
2018-May-24 19:30N 38°08' E 013°22'0 0.0
2018-May-24 19:00N 38°08' E 013°22'0 0.0
2018-May-24 18:30N 38°08' E 013°22'0 0.0
2018-May-24 18:00N 38°08' E 013°22'0 0.0
2018-May-24 17:30N 38°08' E 013°22'0 0.0
2018-May-24 17:00N 38°08' E 013°22'0 0.0
2018-May-24 16:30N 38°08' E 013°22'0 0.0
2018-May-24 16:00N 38°08' E 013°22'0 0.0
2018-May-24 15:30N 38°08' E 013°22'0 0.0
2018-May-24 15:00N 38°08' E 013°22'0 0.0
2018-May-24 14:30N 38°08' E 013°22'0 0.0
2018-May-24 14:00N 38°08' E 013°22'0 0.0
2018-May-24 13:30N 38°08' E 013°22'0 0.0
2018-May-24 09:00N 38°08' E 013°22'0 0.0
2018-May-24 08:30N 38°08' E 013°22'0 0.0
2018-May-24 08:00N 38°08' E 013°22'0 0.0
2018-May-24 07:30N 38°08' E 013°22'0 0.0
2018-May-24 07:00N 38°08' E 013°22'0 0.0
2018-May-24 06:30N 38°08' E 013°22'0 0.0
2018-May-24 06:00N 38°08' E 013°22'0 0.0
2018-May-24 05:30N 38°08' E 013°22'0 0.0
2018-May-24 05:00N 38°08' E 013°22'0 0.0
2018-May-24 04:30N 38°08' E 013°22'0 0.0
2018-May-24 04:00N 38°08' E 013°22'0 0.0
2018-May-24 03:30N 38°08' E 013°22'0 0.0
2018-May-24 03:00N 38°08' E 013°22'0 0.0
2018-May-24 02:30N 38°08' E 013°22'0 0.0
2018-May-24 02:00N 38°08' E 013°22'0 0.0
2018-May-24 01:30N 38°08' E 013°22'0 0.0
2018-May-24 01:00N 38°08' E 013°22'0 0.0
2018-May-24 00:30N 38°08' E 013°22'0 0.0
2018-May-24 00:00N 38°08' E 013°22'0 0.0
2018-May-23 23:30N 38°08' E 013°22'0 0.0
2018-May-23 23:00N 38°08' E 013°22'0 0.0
2018-May-23 22:30N 38°08' E 013°22'0 0.0
2018-May-23 22:00N 38°08' E 013°22'0 0.0
2018-May-23 21:30N 38°08' E 013°22'0 0.0
2018-May-23 21:00N 38°08' E 013°22'0 0.0
2018-May-23 20:30N 38°08' E 013°22'0 0.0
2018-May-23 20:00N 38°08' E 013°22'0 0.0
2018-May-23 19:30N 38°08' E 013°22'0 0.0
2018-May-23 19:00N 38°08' E 013°22'0 0.0
2018-May-23 18:30N 38°08' E 013°22'0 0.0
2018-May-23 18:00N 38°08' E 013°22'0 0.0
2018-May-23 17:30N 38°08' E 013°22'0 0.0
2018-May-23 17:00N 38°08' E 013°22'0 0.0
2018-May-23 16:30N 38°08' E 013°22'0 0.0
2018-May-23 16:00N 38°08' E 013°22'0 0.0
2018-May-23 15:30N 38°08' E 013°22'0 0.0
2018-May-23 15:00N 38°08' E 013°22'0 0.0
2018-May-23 14:30N 38°08' E 013°22'0 0.0
2018-May-23 14:00N 38°08' E 013°22'0 0.0
2018-May-23 13:30N 38°08' E 013°22'0 0.0
2018-May-23 13:00N 38°08' E 013°22'0 0.0
2018-May-23 12:30N 38°08' E 013°22'0 0.0
2018-May-23 12:00N 38°08' E 013°22'0 0.0
2018-May-23 11:30N 38°08' E 013°22'0 0.0
2018-May-23 11:00N 38°08' E 013°22'0 0.0
2018-May-23 10:30N 38°08' E 013°22'0 0.0
2018-May-23 10:00N 38°08' E 013°22'0 0.0
2018-May-23 09:30N 38°08' E 013°22'0 0.0
2018-May-23 09:00N 38°08' E 013°22'0 0.0
2018-May-23 08:30N 38°08' E 013°22'0 0.0
2018-May-23 08:00N 38°08' E 013°22'0 0.0
2018-May-23 07:30N 38°08' E 013°22'0 0.0
2018-May-23 07:00N 38°08' E 013°22'0 0.0
2018-May-23 06:30N 38°08' E 013°22'0 0.0
2018-May-23 06:00N 38°08' E 013°22'0 0.0
2018-May-23 05:30N 38°08' E 013°22'0 0.0
2018-May-23 05:00N 38°08' E 013°22'0 0.0
2018-May-23 04:30N 38°08' E 013°22'0 0.0
2018-May-23 04:00N 38°08' E 013°22'0 0.0
2018-May-23 03:30N 38°08' E 013°22'0 0.0
2018-May-23 03:00N 38°08' E 013°22'0 0.0
2018-May-23 02:30N 38°08' E 013°22'0 0.0
2018-May-23 02:00N 38°08' E 013°22'0 0.0
2018-May-23 01:30N 38°08' E 013°22'0 0.0
2018-May-23 01:00N 38°08' E 013°22'0 0.0
2018-May-23 00:30N 38°08' E 013°22'0 0.0
2018-May-23 00:00N 38°08' E 013°22'0 0.0
2018-May-22 23:30N 38°08' E 013°22'0 0.0
2018-May-22 23:00N 38°08' E 013°22'0 0.0
2018-May-22 22:30N 38°08' E 013°22'0 0.0
2018-May-22 22:00N 38°08' E 013°22'0 0.0
2018-May-22 21:30N 38°08' E 013°22'0 0.0
2018-May-22 21:00N 38°08' E 013°22'0 0.0
2018-May-22 20:30N 38°08' E 013°22'0 0.0
2018-May-22 20:00N 38°08' E 013°22'0 0.0
2018-May-22 19:30N 38°08' E 013°22'0 0.0
2018-May-22 19:00N 38°08' E 013°22'0 0.0
2018-May-22 18:30N 38°08' E 013°22'0 0.0
2018-May-22 18:00N 38°08' E 013°22'0 0.0
2018-May-22 17:30N 38°08' E 013°22'0 0.0
2018-May-22 16:42N 38°08' E 013°22'0 0.0
2018-May-22 16:30N 38°08' E 013°22'0 0.0
2018-May-22 16:00N 38°08' E 013°22'0 0.0
2018-May-22 15:30N 38°08' E 013°22'0 0.0
2018-May-22 15:00N 38°08' E 013°22'0 0.0
2018-May-22 14:30N 38°08' E 013°22'0 0.0
2018-May-22 14:00N 38°08' E 013°22'0 0.0
2018-May-22 13:30N 38°08' E 013°22'0 0.0
2018-May-22 13:00N 38°08' E 013°22'0 0.0
2018-May-22 12:30N 38°08' E 013°22'0 0.0
2018-May-22 12:00N 38°08' E 013°22'0 0.0
2018-May-22 11:30N 38°08' E 013°22'0 0.0
2018-May-22 10:54N 38°08' E 013°22'0 0.0
2018-May-22 10:30N 38°08' E 013°22'0 0.0
2018-May-22 09:57N 38°08' E 013°22'0 0.0
2018-May-22 09:30N 38°08' E 013°22'0 0.0
2018-May-22 09:00N 38°08' E 013°22'0 0.0
2018-May-22 08:30N 38°08' E 013°22'0 0.0
2018-May-22 08:00N 38°08' E 013°22'0 0.0
2018-May-22 07:30N 38°08' E 013°22'0 0.0
2018-May-22 07:00N 38°08' E 013°22'0 0.0
2018-May-22 06:30N 38°08' E 013°22'0 0.0
2018-May-22 06:00N 38°08' E 013°22'0 0.0
2018-May-22 05:30N 38°08' E 013°22'0 0.0
2018-May-22 05:00N 38°08' E 013°22'0 0.0
2018-May-22 04:30N 38°08' E 013°22'0 0.0
2018-May-22 04:00N 38°08' E 013°22'0 0.0
2018-May-22 03:30N 38°08' E 013°22'0 0.0
2018-May-22 03:00N 38°08' E 013°22'0 0.0
2018-May-22 02:30N 38°08' E 013°22'0 0.0
2018-May-22 02:00N 38°08' E 013°22'0 0.0
2018-May-22 01:30N 38°08' E 013°22'0 0.0
2018-May-22 01:00N 38°08' E 013°22'0 0.0
2018-May-22 00:30N 38°08' E 013°22'0 0.0
2018-May-22 00:00N 38°08' E 013°22'0 0.0
2018-May-21 23:30N 38°08' E 013°22'0 0.0
2018-May-21 23:00N 38°08' E 013°22'0 0.0
2018-May-21 22:30N 38°08' E 013°22'0 0.0
2018-May-21 22:00N 38°08' E 013°22'0 0.0
2018-May-21 21:30N 38°08' E 013°22'0 0.0
2018-May-21 21:00N 38°08' E 013°22'0 0.0
2018-May-21 20:30N 38°08' E 013°22'0 0.0
2018-May-21 20:00N 38°08' E 013°22'0 0.0
2018-May-21 19:30N 38°08' E 013°22'0 0.0
2018-May-21 19:00N 38°08' E 013°22'0 0.0
2018-May-21 18:30N 38°08' E 013°22'0 0.0
2018-May-21 18:00N 38°08' E 013°22'0 0.0
2018-May-21 17:30N 38°08' E 013°22'0 0.0
2018-May-21 17:00N 38°08' E 013°22'0 0.0
2018-May-21 16:30N 38°08' E 013°22'0 0.0
2018-May-21 16:00N 38°08' E 013°22'0 0.0
2018-May-21 15:30N 38°08' E 013°22'0 0.0
2018-May-21 15:00N 38°08' E 013°22'0 0.0
2018-May-21 14:30N 38°08' E 013°22'0 0.0
2018-May-21 14:00N 38°08' E 013°22'0 0.0
2018-May-21 13:30N 38°08' E 013°22'0 0.0
2018-May-21 13:00N 38°08' E 013°22'0 0.0
2018-May-21 12:30N 38°08' E 013°22'0 0.0
2018-May-21 12:00N 38°08' E 013°22'0 0.0
2018-May-21 11:30N 38°08' E 013°22'0 0.0
2018-May-21 11:00N 38°08' E 013°22'0 0.0
2018-May-21 10:30N 38°08' E 013°22'0 0.0
2018-May-21 10:00N 38°08' E 013°22'0 0.0
2018-May-21 09:30N 38°08' E 013°22'0 0.0
2018-May-21 09:00N 38°08' E 013°22'0 0.0
2018-May-21 08:30N 38°08' E 013°22'0 0.0
2018-May-21 08:00N 38°08' E 013°22'0 0.0
2018-May-21 07:30N 38°08' E 013°22'0 0.0
2018-May-21 07:00N 38°08' E 013°22'0 0.0
2018-May-21 06:30N 38°08' E 013°22'0 0.0
2018-May-21 06:00N 38°08' E 013°22'0 0.0
2018-May-21 05:30N 38°08' E 013°22'0 0.0
2018-May-21 05:00N 38°08' E 013°22'0 0.0
2018-May-21 04:30N 38°08' E 013°22'0 0.0
2018-May-21 04:00N 38°08' E 013°22'0 0.0
2018-May-21 03:30N 38°08' E 013°22'0 0.0
2018-May-21 03:00N 38°08' E 013°22'0 0.0
2018-May-21 02:30N 38°08' E 013°22'0 0.0
2018-May-21 02:00N 38°08' E 013°22'0 0.0
2018-May-21 01:30N 38°08' E 013°22'0 0.0
2018-May-21 01:00N 38°08' E 013°22'0 0.0
2018-May-21 00:30N 38°08' E 013°22'0 0.0
2018-May-21 00:00N 38°08' E 013°22'0 0.0
2018-May-20 23:30N 38°08' E 013°22'0 0.0
2018-May-20 23:00N 38°08' E 013°22'0 0.0
2018-May-20 22:30N 38°08' E 013°22'0 0.0
2018-May-20 22:00N 38°08' E 013°22'0 0.0
2018-May-20 21:30N 38°08' E 013°22'0 0.0
2018-May-20 21:00N 38°08' E 013°22'0 0.0
2018-May-20 20:30N 38°08' E 013°22'0 0.0
2018-May-20 20:00N 38°08' E 013°22'0 0.0
2018-May-20 19:30N 38°08' E 013°22'0 0.0
2018-May-20 19:00N 38°08' E 013°22'0 0.0
2018-May-20 18:30N 38°08' E 013°22'0 0.0
2018-May-20 18:00N 38°08' E 013°22'0 0.0
2018-May-20 17:30N 38°08' E 013°22'0 0.0
2018-May-20 17:00N 38°08' E 013°22'0 0.0
2018-May-20 16:30N 38°08' E 013°22'0 0.0
2018-May-20 16:00N 38°08' E 013°22'0 0.0
2018-May-20 15:30N 38°08' E 013°22'0 0.0
2018-May-20 15:00N 38°08' E 013°22'0 0.0
2018-May-20 14:30N 38°08' E 013°22'0 0.0
2018-May-20 14:00N 38°08' E 013°22'0 0.0
2018-May-20 13:30N 38°08' E 013°22'0 0.0
2018-May-20 13:00N 38°08' E 013°22'0 0.0
2018-May-20 12:30N 38°08' E 013°22'0 0.0
2018-May-20 12:00N 38°08' E 013°22'0 0.0
2018-May-20 11:30N 38°08' E 013°22'0 0.0
2018-May-20 11:00N 38°08' E 013°22'0 0.0
2018-May-20 10:30N 38°08' E 013°22'0 0.0
2018-May-20 10:00N 38°08' E 013°22'0 0.0
2018-May-20 09:30N 38°08' E 013°22'0 0.0
2018-May-20 09:00N 38°08' E 013°22'0 0.0
2018-May-20 08:30N 38°08' E 013°22'0 0.0
2018-May-20 07:57N 38°08' E 013°22'0 0.0
2018-May-20 07:30N 38°08' E 013°22'0 0.0
2018-May-20 07:00N 38°08' E 013°22'0 0.0
2018-May-20 06:30N 38°08' E 013°22'0 0.0
2018-May-20 06:00N 38°08' E 013°22'0 0.0
2018-May-20 05:30N 38°08' E 013°22'0 0.0
2018-May-20 05:00N 38°08' E 013°22'0 0.0
2018-May-20 04:30N 38°08' E 013°22'0 0.0
2018-May-20 04:00N 38°08' E 013°22'0 0.0
2018-May-20 03:30N 38°08' E 013°22'0 0.0
2018-May-20 02:58N 38°08' E 013°22'0 0.0
2018-May-20 02:28N 38°08' E 013°22'0 0.0
2018-May-20 01:58N 38°08' E 013°22'0 0.0
2018-May-20 01:28N 38°08' E 013°22'0 0.0
2018-May-20 00:58N 38°08' E 013°22'0 0.0
2018-May-20 00:28N 38°08' E 013°22'0 0.0
2018-May-19 23:58N 38°08' E 013°22'0 0.0
2018-May-19 23:28N 38°08' E 013°22'0 0.0
2018-May-19 22:58N 38°08' E 013°22'0 0.0
2018-May-19 22:28N 38°08' E 013°22'0 0.0
2018-May-19 21:58N 38°08' E 013°22'0 0.0
2018-May-19 21:28N 38°08' E 013°22'0 0.0
2018-May-19 20:58N 38°08' E 013°22'0 0.0
2018-May-19 20:28N 38°08' E 013°22'0 0.0
2018-May-19 19:58N 38°08' E 013°22'0 0.0
2018-May-19 19:28N 38°08' E 013°22'0 0.0
2018-May-19 18:58N 38°08' E 013°22'0 0.0
2018-May-19 18:28N 38°08' E 013°22'0 0.0
2018-May-19 17:58N 38°08' E 013°22'0 0.0
2018-May-19 17:28N 38°08' E 013°22'0 0.0
2018-May-19 16:58N 38°08' E 013°22'0 0.0
2018-May-19 16:22N 38°08' E 013°22'0 0.0
2018-May-19 15:58N 38°08' E 013°22'0 0.0
2018-May-19 15:28N 38°08' E 013°22'0 0.0
2018-May-19 14:58N 38°08' E 013°22'0 0.0
2018-May-19 14:28N 38°08' E 013°22'0 0.0
2018-May-19 13:58N 38°08' E 013°22'0 0.0
2018-May-19 13:28N 38°08' E 013°22'0 0.0
2018-May-19 12:58N 38°08' E 013°22'0 0.0
2018-May-19 12:29N 38°08' E 013°22'0 0.0
2018-May-19 11:59N 38°08' E 013°22'0 0.0
2018-May-19 11:29N 38°08' E 013°22'0 0.0
2018-May-19 10:59N 38°08' E 013°22'0 0.0
2018-May-19 10:29N 38°08' E 013°22'0 0.0
2018-May-19 09:59N 38°08' E 013°22'0 0.0
2018-May-19 09:26N 38°08' E 013°22'0 0.0
2018-May-19 08:59N 38°08' E 013°22'0 0.0
2018-May-19 08:29N 38°08' E 013°22'0 0.0
2018-May-19 07:59N 38°08' E 013°22'0 0.0
2018-May-19 07:29N 38°08' E 013°22'0 0.0
2018-May-19 06:56N 38°08' E 013°22'0 0.0
2018-May-19 06:29N 38°08' E 013°22'0 0.0
2018-May-19 05:59N 38°08' E 013°22'0 0.0
2018-May-19 05:29N 38°08' E 013°22'0 0.0
2018-May-19 04:56N 38°08' E 013°22'0 0.0
2018-May-19 04:29N 38°08' E 013°22'0 0.0
2018-May-19 03:59N 38°08' E 013°22'0 0.0
2018-May-19 03:29N 38°08' E 013°22'0 0.0
2018-May-19 02:59N 38°08' E 013°22'0 0.0
2018-May-19 02:26N 38°08' E 013°22'0 0.0
2018-May-19 01:56N 38°08' E 013°22'0 0.0
2018-May-19 01:26N 38°08' E 013°22'0 0.0
2018-May-19 00:59N 38°08' E 013°22'0 0.0
2018-May-19 00:29N 38°08' E 013°22'0 0.0
2018-May-18 23:59N 38°08' E 013°22'0 0.0
2018-May-18 23:26N 38°08' E 013°22'0 0.0
2018-May-18 22:59N 38°08' E 013°22'0 0.0
2018-May-18 22:29N 38°08' E 013°22'0 0.0
2018-May-18 21:59N 38°08' E 013°22'0 0.0
2018-May-18 21:29N 38°08' E 013°22'0 0.0
2018-May-18 20:59N 38°08' E 013°22'0 0.0
2018-May-18 20:29N 38°08' E 013°22'0 0.0
2018-May-18 19:59N 38°08' E 013°22'0 0.0
2018-May-18 19:29N 38°08' E 013°22'0 0.0
2018-May-18 18:59N 38°08' E 013°22'0 0.0
2018-May-18 18:29N 38°08' E 013°22'0 0.0
2018-May-18 17:59N 38°08' E 013°22'0 0.0
2018-May-18 17:29N 38°08' E 013°22'0 0.0
2018-May-18 16:56N 38°08' E 013°22'0 0.0
2018-May-18 16:29N 38°08' E 013°22'0 0.0
2018-May-18 15:59N 38°08' E 013°22'0 0.0
2018-May-18 15:29N 38°08' E 013°22'0 0.0
2018-May-18 14:59N 38°08' E 013°22'0 0.0
2018-May-18 14:29N 38°08' E 013°22'0 0.0
2018-May-18 13:59N 38°08' E 013°22'0 0.0
2018-May-18 13:29N 38°08' E 013°22'0 0.0
2018-May-18 12:59N 38°08' E 013°22'0 0.0
2018-May-18 12:29N 38°08' E 013°22'0 0.1
2018-May-18 11:59N 38°08' E 013°22'0 0.0
2018-May-18 11:29N 38°08' E 013°22'0 0.0
2018-May-18 10:56N 38°08' E 013°22'0 0.0
2018-May-18 10:26N 38°08' E 013°22'0 0.0
2018-May-18 09:56N 38°08' E 013°22'0 0.0
2018-May-18 09:26N 38°08' E 013°22'0 0.0
2018-May-18 08:56N 38°08' E 013°22'0 0.0
2018-May-18 08:29N 38°08' E 013°22'0 0.0
2018-May-18 07:59N 38°08' E 013°22'0 0.0
2018-May-18 07:29N 38°08' E 013°22'0 0.0
2018-May-18 06:59N 38°08' E 013°22'0 0.0
2018-May-18 06:29N 38°08' E 013°22'0 0.0
2018-May-18 05:59N 38°08' E 013°22'0 0.0
2018-May-18 05:29N 38°08' E 013°22'0 0.0
2018-May-18 04:59N 38°08' E 013°22'0 0.0
2018-May-18 04:26N 38°08' E 013°22'0 0.0
2018-May-18 03:59N 38°08' E 013°22'0 0.0
2018-May-18 03:29N 38°08' E 013°22'0 0.0
2018-May-18 02:59N 38°08' E 013°22'0 0.0
2018-May-18 02:29N 38°08' E 013°22'0 0.0
2018-May-18 01:59N 38°08' E 013°22'0 0.0
2018-May-18 01:29N 38°08' E 013°22'0 0.0
2018-May-18 00:59N 38°08' E 013°22'0 0.0
2018-May-18 00:29N 38°08' E 013°22'0 0.0
2018-May-17 23:59N 38°08' E 013°22'0 0.0
2018-May-17 23:29N 38°08' E 013°22'0 0.0
2018-May-17 22:56N 38°08' E 013°22'0 0.0
2018-May-17 22:20N 38°08' E 013°22'0 0.0
2018-May-17 21:56N 38°08' E 013°22'0 0.0
2018-May-17 21:26N 38°08' E 013°22'0 0.0
2018-May-17 20:56N 38°08' E 013°22'0 0.0
2018-May-17 20:26N 38°08' E 013°22'0 0.0
2018-May-17 19:38N 38°08' E 013°22'0 0.0
2018-May-17 19:20N 38°08' E 013°22'0 0.0
2018-May-17 18:56N 38°08' E 013°22'0 0.0
2018-May-17 18:26N 38°08' E 013°22'0 0.0
2018-May-17 17:59N 38°08' E 013°22'0 0.0
2018-May-17 17:29N 38°08' E 013°22'0 0.0
2018-May-17 16:56N 38°08' E 013°22'0 0.0
2018-May-17 16:29N 38°08' E 013°22'0 0.0
2018-May-17 15:59N 38°08' E 013°22'0 0.0
2018-May-17 15:29N 38°08' E 013°22'0 0.0
2018-May-17 14:59N 38°08' E 013°22'0 0.0
2018-May-17 14:29N 38°08' E 013°22'0 0.0
2018-May-17 13:56N 38°08' E 013°22'0 0.0
2018-May-17 13:29N 38°08' E 013°22'0 0.0
2018-May-17 12:59N 38°08' E 013°22'  

Dump ship's entire track history